sensor_id;sensor_type;location;lat;lon;timestamp;P1;durP1;ratioP1;P2;durP2;ratioP2
72573;SDS011;60603;52.548;13.420;2023-04-01T00:01:38;6.93;;;2.40;;
72573;SDS011;60603;52.548;13.420;2023-04-01T00:04:04;4.68;;;2.30;;
72573;SDS011;60603;52.548;13.420;2023-04-01T00:06:30;4.78;;;2.00;;
72573;SDS011;60603;52.548;13.420;2023-04-01T00:08:56;6.22;;;2.20;;
72573;SDS011;60603;52.548;13.420;2023-04-01T00:11:22;5.07;;;2.10;;
72573;SDS011;60603;52.548;13.420;2023-04-01T00:13:49;7.28;;;2.50;;
72573;SDS011;60603;52.548;13.420;2023-04-01T00:16:14;4.40;;;2.03;;
72573;SDS011;60603;52.548;13.420;2023-04-01T00:18:40;6.22;;;1.98;;
72573;SDS011;60603;52.548;13.420;2023-04-01T00:21:06;4.40;;;1.90;;
72573;SDS011;60603;52.548;13.420;2023-04-01T00:23:33;4.43;;;1.85;;
72573;SDS011;60603;52.548;13.420;2023-04-01T00:25:59;3.83;;;1.60;;
72573;SDS011;60603;52.548;13.420;2023-04-01T00:28:26;5.30;;;2.10;;
72573;SDS011;60603;52.548;13.420;2023-04-01T00:30:52;6.10;;;2.08;;
72573;SDS011;60603;52.548;13.420;2023-04-01T00:33:18;4.32;;;1.63;;
72573;SDS011;60603;52.548;13.420;2023-04-01T00:35:43;4.63;;;2.20;;
72573;SDS011;60603;52.548;13.420;2023-04-01T00:38:10;5.13;;;2.25;;
72573;SDS011;60603;52.548;13.420;2023-04-01T00:40:37;5.38;;;1.92;;
72573;SDS011;60603;52.548;13.420;2023-04-01T00:43:09;6.00;;;1.83;;
72573;SDS011;60603;52.548;13.420;2023-04-01T00:45:38;7.53;;;2.42;;
72573;SDS011;60603;52.548;13.420;2023-04-01T00:48:07;5.53;;;2.15;;
72573;SDS011;60603;52.548;13.420;2023-04-01T00:50:35;4.70;;;1.92;;
72573;SDS011;60603;52.548;13.420;2023-04-01T00:53:02;4.53;;;1.70;;
72573;SDS011;60603;52.548;13.420;2023-04-01T00:55:29;4.55;;;2.00;;
72573;SDS011;60603;52.548;13.420;2023-04-01T00:57:56;5.57;;;2.00;;
72573;SDS011;60603;52.548;13.420;2023-04-01T01:00:23;5.72;;;2.20;;
72573;SDS011;60603;52.548;13.420;2023-04-01T01:02:51;6.55;;;2.40;;
72573;SDS011;60603;52.548;13.420;2023-04-01T01:05:17;5.38;;;1.98;;
72573;SDS011;60603;52.548;13.420;2023-04-01T01:11:04;5.70;;;1.90;;
72573;SDS011;60603;52.548;13.420;2023-04-01T01:13:35;6.25;;;2.35;;
72573;SDS011;60603;52.548;13.420;2023-04-01T01:16:06;6.53;;;2.15;;
72573;SDS011;60603;52.548;13.420;2023-04-01T01:28:55;4.68;;;2.15;;
72573;SDS011;60603;52.548;13.420;2023-04-01T01:31:28;5.88;;;2.65;;
72573;SDS011;60603;52.548;13.420;2023-04-01T01:35:08;4.50;;;2.05;;
72573;SDS011;60603;52.548;13.420;2023-04-01T01:37:13;5.88;;;2.10;;
72573;SDS011;60603;52.548;13.420;2023-04-01T01:39:41;7.15;;;2.35;;
72573;SDS011;60603;52.548;13.420;2023-04-01T01:42:09;6.95;;;2.33;;
72573;SDS011;60603;52.548;13.420;2023-04-01T01:44:37;5.32;;;2.30;;
72573;SDS011;60603;52.548;13.420;2023-04-01T01:47:03;8.18;;;3.05;;
72573;SDS011;60603;52.548;13.420;2023-04-01T01:49:29;7.75;;;2.42;;
72573;SDS011;60603;52.548;13.420;2023-04-01T01:51:57;5.68;;;2.38;;
72573;SDS011;60603;52.548;13.420;2023-04-01T01:54:23;10.05;;;2.47;;
72573;SDS011;60603;52.548;13.420;2023-04-01T01:56:49;6.25;;;2.72;;
72573;SDS011;60603;52.548;13.420;2023-04-01T01:59:17;4.88;;;2.38;;
72573;SDS011;60603;52.548;13.420;2023-04-01T02:01:46;6.45;;;2.30;;
72573;SDS011;60603;52.548;13.420;2023-04-01T02:04:14;5.28;;;2.17;;
72573;SDS011;60603;52.548;13.420;2023-04-01T02:06:47;6.60;;;2.92;;
72573;SDS011;60603;52.548;13.420;2023-04-01T02:09:17;6.20;;;2.33;;
72573;SDS011;60603;52.548;13.420;2023-04-01T02:11:51;5.82;;;2.22;;
72573;SDS011;60603;52.548;13.420;2023-04-01T02:14:22;7.13;;;2.50;;
72573;SDS011;60603;52.548;13.420;2023-04-01T02:19:32;4.05;;;1.92;;
72573;SDS011;60603;52.548;13.420;2023-04-01T02:24:34;4.40;;;1.98;;
72573;SDS011;60603;52.548;13.420;2023-04-01T02:27:00;5.22;;;1.80;;
72573;SDS011;60603;52.548;13.420;2023-04-01T02:29:26;7.72;;;2.40;;
72573;SDS011;60603;52.548;13.420;2023-04-01T02:31:52;6.22;;;2.10;;
72573;SDS011;60603;52.548;13.420;2023-04-01T02:34:19;6.57;;;2.03;;
72573;SDS011;60603;52.548;13.420;2023-04-01T02:36:46;5.57;;;2.30;;
72573;SDS011;60603;52.548;13.420;2023-04-01T02:39:13;6.63;;;2.10;;
72573;SDS011;60603;52.548;13.420;2023-04-01T02:41:42;5.10;;;2.17;;
72573;SDS011;60603;52.548;13.420;2023-04-01T02:44:10;3.95;;;1.73;;
72573;SDS011;60603;52.548;13.420;2023-04-01T02:46:36;5.30;;;2.10;;
72573;SDS011;60603;52.548;13.420;2023-04-01T02:49:03;4.47;;;1.90;;
72573;SDS011;60603;52.548;13.420;2023-04-01T02:51:28;5.30;;;1.83;;
72573;SDS011;60603;52.548;13.420;2023-04-01T02:53:54;4.65;;;1.77;;
72573;SDS011;60603;52.548;13.420;2023-04-01T02:56:20;4.40;;;2.00;;
72573;SDS011;60603;52.548;13.420;2023-04-01T02:58:47;5.53;;;2.00;;
72573;SDS011;60603;52.548;13.420;2023-04-01T03:01:12;7.90;;;2.42;;
72573;SDS011;60603;52.548;13.420;2023-04-01T03:03:39;6.25;;;1.88;;
72573;SDS011;60603;52.548;13.420;2023-04-01T03:06:11;7.25;;;2.10;;
72573;SDS011;60603;52.548;13.420;2023-04-01T03:08:38;6.38;;;1.90;;
72573;SDS011;60603;52.548;13.420;2023-04-01T03:11:04;6.32;;;2.03;;
72573;SDS011;60603;52.548;13.420;2023-04-01T03:13:31;3.80;;;1.80;;
72573;SDS011;60603;52.548;13.420;2023-04-01T03:15:57;5.25;;;1.90;;
72573;SDS011;60603;52.548;13.420;2023-04-01T03:18:23;6.18;;;1.88;;
72573;SDS011;60603;52.548;13.420;2023-04-01T03:20:48;5.95;;;2.65;;
72573;SDS011;60603;52.548;13.420;2023-04-01T03:23:14;5.22;;;1.73;;
72573;SDS011;60603;52.548;13.420;2023-04-01T03:25:42;5.80;;;1.95;;
72573;SDS011;60603;52.548;13.420;2023-04-01T03:28:08;4.82;;;1.90;;
72573;SDS011;60603;52.548;13.420;2023-04-01T03:30:34;4.90;;;1.85;;
72573;SDS011;60603;52.548;13.420;2023-04-01T03:33:00;5.75;;;2.15;;
72573;SDS011;60603;52.548;13.420;2023-04-01T03:35:26;6.40;;;1.98;;
72573;SDS011;60603;52.548;13.420;2023-04-01T03:37:52;6.82;;;2.25;;
72573;SDS011;60603;52.548;13.420;2023-04-01T03:40:18;11.40;;;2.78;;
72573;SDS011;60603;52.548;13.420;2023-04-01T03:42:44;6.18;;;2.30;;
72573;SDS011;60603;52.548;13.420;2023-04-01T03:45:10;4.55;;;2.05;;
72573;SDS011;60603;52.548;13.420;2023-04-01T03:47:37;5.90;;;2.28;;
72573;SDS011;60603;52.548;13.420;2023-04-01T03:50:04;5.40;;;2.03;;
72573;SDS011;60603;52.548;13.420;2023-04-01T03:52:30;8.57;;;3.22;;
72573;SDS011;60603;52.548;13.420;2023-04-01T03:54:56;6.07;;;2.42;;
72573;SDS011;60603;52.548;13.420;2023-04-01T03:57:22;5.10;;;2.25;;
72573;SDS011;60603;52.548;13.420;2023-04-01T03:59:47;7.97;;;2.40;;
72573;SDS011;60603;52.548;13.420;2023-04-01T04:02:13;6.65;;;2.58;;
72573;SDS011;60603;52.548;13.420;2023-04-01T04:04:39;4.45;;;2.33;;
72573;SDS011;60603;52.548;13.420;2023-04-01T04:07:05;7.13;;;2.40;;
72573;SDS011;60603;52.548;13.420;2023-04-01T04:09:31;5.95;;;2.30;;
72573;SDS011;60603;52.548;13.420;2023-04-01T04:11:57;5.88;;;2.80;;
72573;SDS011;60603;52.548;13.420;2023-04-01T04:14:23;5.88;;;2.65;;
72573;SDS011;60603;52.548;13.420;2023-04-01T04:16:49;6.45;;;1.98;;
72573;SDS011;60603;52.548;13.420;2023-04-01T04:19:14;4.50;;;2.20;;
72573;SDS011;60603;52.548;13.420;2023-04-01T04:21:41;5.47;;;2.67;;
72573;SDS011;60603;52.548;13.420;2023-04-01T04:24:07;7.10;;;2.33;;
72573;SDS011;60603;52.548;13.420;2023-04-01T04:26:33;7.90;;;2.35;;
72573;SDS011;60603;52.548;13.420;2023-04-01T04:28:59;7.40;;;2.47;;
72573;SDS011;60603;52.548;13.420;2023-04-01T04:31:25;7.03;;;3.40;;
72573;SDS011;60603;52.548;13.420;2023-04-01T04:33:51;8.10;;;2.20;;
72573;SDS011;60603;52.548;13.420;2023-04-01T04:36:17;5.82;;;2.40;;
72573;SDS011;60603;52.548;13.420;2023-04-01T04:38:43;7.85;;;2.50;;
72573;SDS011;60603;52.548;13.420;2023-04-01T04:41:10;6.57;;;2.97;;
72573;SDS011;60603;52.548;13.420;2023-04-01T04:43:37;10.38;;;3.28;;
72573;SDS011;60603;52.548;13.420;2023-04-01T04:46:07;7.32;;;2.92;;
72573;SDS011;60603;52.548;13.420;2023-04-01T04:48:34;6.53;;;2.88;;
72573;SDS011;60603;52.548;13.420;2023-04-01T04:51:00;7.70;;;3.83;;
72573;SDS011;60603;52.548;13.420;2023-04-01T04:53:25;7.70;;;3.15;;
72573;SDS011;60603;52.548;13.420;2023-04-01T04:55:51;7.85;;;3.40;;
72573;SDS011;60603;52.548;13.420;2023-04-01T04:58:17;6.45;;;3.00;;
72573;SDS011;60603;52.548;13.420;2023-04-01T05:00:44;7.90;;;3.20;;
72573;SDS011;60603;52.548;13.420;2023-04-01T05:03:10;7.82;;;2.80;;
72573;SDS011;60603;52.548;13.420;2023-04-01T05:05:37;8.23;;;4.15;;
72573;SDS011;60603;52.548;13.420;2023-04-01T05:08:03;7.00;;;3.13;;
72573;SDS011;60603;52.548;13.420;2023-04-01T05:10:29;9.02;;;3.75;;
72573;SDS011;60603;52.548;13.420;2023-04-01T05:12:56;8.45;;;3.33;;
72573;SDS011;60603;52.548;13.420;2023-04-01T05:15:23;5.43;;;3.00;;
72573;SDS011;60603;52.548;13.420;2023-04-01T05:17:49;7.45;;;3.30;;
72573;SDS011;60603;52.548;13.420;2023-04-01T05:20:15;8.70;;;3.55;;
72573;SDS011;60603;52.548;13.420;2023-04-01T05:22:42;7.43;;;3.58;;
72573;SDS011;60603;52.548;13.420;2023-04-01T05:25:08;10.68;;;3.70;;
72573;SDS011;60603;52.548;13.420;2023-04-01T05:27:34;8.82;;;3.72;;
72573;SDS011;60603;52.548;13.420;2023-04-01T05:30:00;8.13;;;3.65;;
72573;SDS011;60603;52.548;13.420;2023-04-01T05:32:26;7.32;;;3.47;;
72573;SDS011;60603;52.548;13.420;2023-04-01T05:34:52;7.63;;;3.28;;
72573;SDS011;60603;52.548;13.420;2023-04-01T05:37:18;8.95;;;3.20;;
72573;SDS011;60603;52.548;13.420;2023-04-01T05:39:44;7.38;;;3.28;;
72573;SDS011;60603;52.548;13.420;2023-04-01T05:42:10;7.50;;;3.45;;
72573;SDS011;60603;52.548;13.420;2023-04-01T05:44:36;9.40;;;4.57;;
72573;SDS011;60603;52.548;13.420;2023-04-01T05:47:02;9.07;;;3.05;;
72573;SDS011;60603;52.548;13.420;2023-04-01T05:49:28;7.90;;;3.20;;
72573;SDS011;60603;52.548;13.420;2023-04-01T05:51:54;8.43;;;3.40;;
72573;SDS011;60603;52.548;13.420;2023-04-01T05:54:20;7.85;;;3.20;;
72573;SDS011;60603;52.548;13.420;2023-04-01T05:56:46;7.32;;;3.00;;
72573;SDS011;60603;52.548;13.420;2023-04-01T05:59:12;9.75;;;3.83;;
72573;SDS011;60603;52.548;13.420;2023-04-01T06:01:38;12.80;;;4.18;;
72573;SDS011;60603;52.548;13.420;2023-04-01T06:04:04;8.30;;;2.92;;
72573;SDS011;60603;52.548;13.420;2023-04-01T06:06:30;7.78;;;3.67;;
72573;SDS011;60603;52.548;13.420;2023-04-01T06:09:13;7.43;;;3.60;;
72573;SDS011;60603;52.548;13.420;2023-04-01T06:14:28;6.07;;;3.20;;
72573;SDS011;60603;52.548;13.420;2023-04-01T06:17:05;7.45;;;3.28;;
72573;SDS011;60603;52.548;13.420;2023-04-01T06:19:43;7.72;;;3.40;;
72573;SDS011;60603;52.548;13.420;2023-04-01T06:27:56;10.07;;;3.90;;
72573;SDS011;60603;52.548;13.420;2023-04-01T06:33:16;8.00;;;3.97;;
72573;SDS011;60603;52.548;13.420;2023-04-01T06:43:57;8.45;;;4.18;;
72573;SDS011;60603;52.548;13.420;2023-04-01T06:46:48;11.68;;;4.13;;
72573;SDS011;60603;52.548;13.420;2023-04-01T06:49:36;10.35;;;4.10;;
72573;SDS011;60603;52.548;13.420;2023-04-01T06:52:19;7.05;;;4.00;;
72573;SDS011;60603;52.548;13.420;2023-04-01T06:54:52;8.52;;;3.58;;
72573;SDS011;60603;52.548;13.420;2023-04-01T06:57:28;8.43;;;4.25;;
72573;SDS011;60603;52.548;13.420;2023-04-01T06:59:57;7.75;;;4.07;;
72573;SDS011;60603;52.548;13.420;2023-04-01T07:05:13;12.15;;;5.40;;
72573;SDS011;60603;52.548;13.420;2023-04-01T07:07:44;10.30;;;4.60;;
72573;SDS011;60603;52.548;13.420;2023-04-01T07:10:13;9.77;;;3.90;;
72573;SDS011;60603;52.548;13.420;2023-04-01T07:12:45;8.68;;;4.68;;
72573;SDS011;60603;52.548;13.420;2023-04-01T07:15:20;13.15;;;5.07;;
72573;SDS011;60603;52.548;13.420;2023-04-01T07:17:54;9.52;;;5.03;;
72573;SDS011;60603;52.548;13.420;2023-04-01T07:20:27;12.15;;;4.72;;
72573;SDS011;60603;52.548;13.420;2023-04-01T07:22:57;11.23;;;4.40;;
72573;SDS011;60603;52.548;13.420;2023-04-01T07:25:33;10.60;;;4.95;;
72573;SDS011;60603;52.548;13.420;2023-04-01T07:28:03;9.00;;;4.53;;
72573;SDS011;60603;52.548;13.420;2023-04-01T07:30:33;9.52;;;;;
72573;SDS011;60603;52.548;13.420;2023-04-01T07:36:10;7.57;;;3.60;;
72573;SDS011;60603;52.548;13.420;2023-04-01T07:44:22;9.05;;;3.85;;
72573;SDS011;60603;52.548;13.420;2023-04-01T07:46:59;4.60;;;2.67;;
72573;SDS011;60603;52.548;13.420;2023-04-01T07:54:48;12.85;;;5.35;;
72573;SDS011;60603;52.548;13.420;2023-04-01T07:57:19;9.20;;;3.97;;
72573;SDS011;60603;52.548;13.420;2023-04-01T07:59:51;8.05;;;3.40;;
72573;SDS011;60603;52.548;13.420;2023-04-01T08:21:47;6.78;;;2.92;;
72573;SDS011;60603;52.548;13.420;2023-04-01T08:27:01;8.02;;;3.33;;
72573;SDS011;60603;52.548;13.420;2023-04-01T08:32:17;10.30;;;4.63;;
72573;SDS011;60603;52.548;13.420;2023-04-01T08:34:47;9.35;;;4.43;;
72573;SDS011;60603;52.548;13.420;2023-04-01T08:37:25;11.50;;;5.30;;
72573;SDS011;60603;52.548;13.420;2023-04-01T08:48:27;15.63;;;7.22;;
72573;SDS011;60603;52.548;13.420;2023-04-01T08:51:25;14.88;;;7.30;;
72573;SDS011;60603;52.548;13.420;2023-04-01T08:57:20;12.57;;;7.28;;
72573;SDS011;60603;52.548;13.420;2023-04-01T09:02:55;16.20;;;7.38;;
72573;SDS011;60603;52.548;13.420;2023-04-01T09:08:30;12.65;;;6.80;;
72573;SDS011;60603;52.548;13.420;2023-04-01T09:21:35;17.38;;;8.00;;
72573;SDS011;60603;52.548;13.420;2023-04-01T09:27:28;15.18;;;9.02;;
72573;SDS011;60603;52.548;13.420;2023-04-01T09:30:20;15.73;;;7.22;;
72573;SDS011;60603;52.548;13.420;2023-04-01T09:33:10;13.85;;;6.90;;
72573;SDS011;60603;52.548;13.420;2023-04-01T09:38:55;15.60;;;7.68;;
72573;SDS011;60603;52.548;13.420;2023-04-01T09:41:22;14.40;;;7.78;;
72573;SDS011;60603;52.548;13.420;2023-04-01T09:44:02;14.82;;;8.10;;
72573;SDS011;60603;52.548;13.420;2023-04-01T09:49:40;11.35;;;6.45;;
72573;SDS011;60603;52.548;13.420;2023-04-01T09:52:36;13.98;;;7.10;;
72573;SDS011;60603;52.548;13.420;2023-04-01T09:57:37;12.00;;;6.20;;
72573;SDS011;60603;52.548;13.420;2023-04-01T10:17:25;15.32;;;8.38;;
72573;SDS011;60603;52.548;13.420;2023-04-01T10:31:06;11.48;;;6.50;;
72573;SDS011;60603;52.548;13.420;2023-04-01T11:04:33;17.08;;;7.63;;
72573;SDS011;60603;52.548;13.420;2023-04-01T11:07:46;12.15;;;7.40;;
72573;SDS011;60603;52.548;13.420;2023-04-01T11:16:27;14.48;;;8.15;;
72573;SDS011;60603;52.548;13.420;2023-04-01T11:22:10;11.48;;;6.63;;
72573;SDS011;60603;52.548;13.420;2023-04-01T11:27:13;12.82;;;7.30;;
72573;SDS011;60603;52.548;13.420;2023-04-01T11:32:50;9.77;;;6.05;;
72573;SDS011;60603;52.548;13.420;2023-04-01T11:35:26;13.05;;;7.55;;
72573;SDS011;60603;52.548;13.420;2023-04-01T11:43:29;17.77;;;9.48;;
72573;SDS011;60603;52.548;13.420;2023-04-01T11:48:52;13.45;;;7.97;;
72573;SDS011;60603;52.548;13.420;2023-04-01T11:57:03;15.10;;;9.45;;
72573;SDS011;60603;52.548;13.420;2023-04-01T12:10:18;13.77;;;8.63;;
72573;SDS011;60603;52.548;13.420;2023-04-01T12:13:24;12.30;;;7.32;;
72573;SDS011;60603;52.548;13.420;2023-04-01T12:26:38;13.40;;;8.05;;
72573;SDS011;60603;52.548;13.420;2023-04-01T12:54:32;15.45;;;8.68;;
72573;SDS011;60603;52.548;13.420;2023-04-01T13:14:09;17.58;;;9.88;;
72573;SDS011;60603;52.548;13.420;2023-04-01T13:29:27;14.52;;;8.00;;
72573;SDS011;60603;52.548;13.420;2023-04-01T13:32:04;15.25;;;8.50;;
72573;SDS011;60603;52.548;13.420;2023-04-01T13:42:43;14.82;;;7.70;;
72573;SDS011;60603;52.548;13.420;2023-04-01T14:00:43;12.60;;;6.20;;
72573;SDS011;60603;52.548;13.420;2023-04-01T14:02:51;12.15;;;6.63;;
72573;SDS011;60603;52.548;13.420;2023-04-01T14:05:47;11.40;;;5.95;;
72573;SDS011;60603;52.548;13.420;2023-04-01T14:22:31;8.07;;;4.40;;
72573;SDS011;60603;52.548;13.420;2023-04-01T14:25:28;7.72;;;4.15;;
72573;SDS011;60603;52.548;13.420;2023-04-01T14:31:08;7.97;;;3.80;;
72573;SDS011;60603;52.548;13.420;2023-04-01T14:36:35;7.50;;;4.28;;
72573;SDS011;60603;52.548;13.420;2023-04-01T14:47:43;8.63;;;4.45;;
72573;SDS011;60603;52.548;13.420;2023-04-01T14:50:17;8.13;;;4.25;;
72573;SDS011;60603;52.548;13.420;2023-04-01T14:52:58;9.18;;;5.32;;
72573;SDS011;60603;52.548;13.420;2023-04-01T14:55:27;10.38;;;5.07;;
72573;SDS011;60603;52.548;13.420;2023-04-01T14:58:14;11.32;;;6.53;;
72573;SDS011;60603;52.548;13.420;2023-04-01T15:14:35;6.57;;;3.58;;
72573;SDS011;60603;52.548;13.420;2023-04-01T15:20:11;8.50;;;4.50;;
72573;SDS011;60603;52.548;13.420;2023-04-01T15:30:50;7.78;;;4.80;;
72573;SDS011;60603;52.548;13.420;2023-04-01T15:41:23;10.60;;;6.38;;
72573;SDS011;60603;52.548;13.420;2023-04-01T15:43:53;9.27;;;5.30;;
72573;SDS011;60603;52.548;13.420;2023-04-01T15:46:22;10.63;;;4.68;;
72573;SDS011;60603;52.548;13.420;2023-04-01T15:52:05;11.70;;;6.30;;
72573;SDS011;60603;52.548;13.420;2023-04-01T16:05:20;9.13;;;4.88;;
72573;SDS011;60603;52.548;13.420;2023-04-01T16:16:24;8.48;;;4.30;;
72573;SDS011;60603;52.548;13.420;2023-04-01T16:22:03;8.18;;;4.68;;
72573;SDS011;60603;52.548;13.420;2023-04-01T16:27:24;7.82;;;4.80;;
72573;SDS011;60603;52.548;13.420;2023-04-01T16:29:55;5.95;;;3.80;;
72573;SDS011;60603;52.548;13.420;2023-04-01T16:45:45;6.47;;;2.55;;
72573;SDS011;60603;52.548;13.420;2023-04-01T16:48:20;7.28;;;3.42;;
72573;SDS011;60603;52.548;13.420;2023-04-01T16:58:35;6.32;;;3.50;;
72573;SDS011;60603;52.548;13.420;2023-04-01T17:01:07;8.80;;;4.30;;
72573;SDS011;60603;52.548;13.420;2023-04-01T17:03:44;6.88;;;3.88;;
72573;SDS011;60603;52.548;13.420;2023-04-01T17:15:01;7.85;;;4.47;;
72573;SDS011;60603;52.548;13.420;2023-04-01T17:23:38;8.05;;;3.58;;
72573;SDS011;60603;52.548;13.420;2023-04-01T17:36:55;7.15;;;3.88;;
72573;SDS011;60603;52.548;13.420;2023-04-01T17:39:57;6.88;;;3.92;;
72573;SDS011;60603;52.548;13.420;2023-04-01T17:42:37;6.78;;;4.00;;
72573;SDS011;60603;52.548;13.420;2023-04-01T17:45:16;5.43;;;3.25;;
72573;SDS011;60603;52.548;13.420;2023-04-01T17:53:18;7.65;;;4.53;;
72573;SDS011;60603;52.548;13.420;2023-04-01T17:58:46;8.07;;;4.53;;
72573;SDS011;60603;52.548;13.420;2023-04-01T18:01:29;7.65;;;4.43;;
72573;SDS011;60603;52.548;13.420;2023-04-01T18:04:08;6.03;;;4.25;;
72573;SDS011;60603;52.548;13.420;2023-04-01T18:15:12;11.40;;;4.80;;
72573;SDS011;60603;52.548;13.420;2023-04-01T18:23:26;9.90;;;5.13;;
72573;SDS011;60603;52.548;13.420;2023-04-01T18:26:02;11.52;;;5.00;;
72573;SDS011;60603;52.548;13.420;2023-04-01T18:28:41;8.40;;;5.07;;
72573;SDS011;60603;52.548;13.420;2023-04-01T18:31:19;10.38;;;5.63;;
72573;SDS011;60603;52.548;13.420;2023-04-01T18:36:36;10.05;;;5.35;;
72573;SDS011;60603;52.548;13.420;2023-04-01T18:39:07;7.00;;;4.38;;
72573;SDS011;60603;52.548;13.420;2023-04-01T18:55:42;10.02;;;5.15;;
72573;SDS011;60603;52.548;13.420;2023-04-01T19:01:01;9.70;;;4.90;;
72573;SDS011;60603;52.548;13.420;2023-04-01T19:03:38;7.63;;;4.38;;
72573;SDS011;60603;52.548;13.420;2023-04-01T19:06:26;10.38;;;5.90;;
72573;SDS011;60603;52.548;13.420;2023-04-01T19:08:58;8.98;;;5.00;;
72573;SDS011;60603;52.548;13.420;2023-04-01T19:11:37;21.92;;;8.98;;
72573;SDS011;60603;52.548;13.420;2023-04-01T19:17:48;10.50;;;5.75;;
72573;SDS011;60603;52.548;13.420;2023-04-01T19:25:42;12.05;;;6.07;;
72573;SDS011;60603;52.548;13.420;2023-04-01T19:36:52;13.82;;;7.93;;
72573;SDS011;60603;52.548;13.420;2023-04-01T19:47:46;16.65;;;7.13;;
72573;SDS011;60603;52.548;13.420;2023-04-01T19:50:46;14.00;;;7.57;;
72573;SDS011;60603;52.548;13.420;2023-04-01T19:55:52;11.82;;;6.60;;
72573;SDS011;60603;52.548;13.420;2023-04-01T19:58:43;13.35;;;6.10;;
72573;SDS011;60603;52.548;13.420;2023-04-01T20:01:33;17.92;;;8.07;;
72573;SDS011;60603;52.548;13.420;2023-04-01T20:04:03;14.43;;;7.60;;
72573;SDS011;60603;52.548;13.420;2023-04-01T20:12:09;12.40;;;5.85;;
72573;SDS011;60603;52.548;13.420;2023-04-01T20:14:59;13.50;;;6.15;;
72573;SDS011;60603;52.548;13.420;2023-04-01T20:17:33;13.48;;;7.45;;
72573;SDS011;60603;52.548;13.420;2023-04-01T20:33:06;16.20;;;7.78;;
72573;SDS011;60603;52.548;13.420;2023-04-01T20:39:07;13.88;;;7.93;;
72573;SDS011;60603;52.548;13.420;2023-04-01T20:41:23;12.18;;;6.80;;
72573;SDS011;60603;52.548;13.420;2023-04-01T20:46:24;13.95;;;8.07;;
72573;SDS011;60603;52.548;13.420;2023-04-01T20:51:43;15.88;;;8.32;;
72573;SDS011;60603;52.548;13.420;2023-04-01T21:02:32;15.52;;;8.73;;
72573;SDS011;60603;52.548;13.420;2023-04-01T21:10:48;18.85;;;9.00;;
72573;SDS011;60603;52.548;13.420;2023-04-01T21:24:23;15.13;;;6.93;;
72573;SDS011;60603;52.548;13.420;2023-04-01T21:33:06;12.95;;;6.07;;
72573;SDS011;60603;52.548;13.420;2023-04-01T21:41:17;19.80;;;7.72;;
72573;SDS011;60603;52.548;13.420;2023-04-01T21:58:13;10.82;;;5.03;;
72573;SDS011;60603;52.548;13.420;2023-04-01T22:06:30;9.82;;;5.22;;
72573;SDS011;60603;52.548;13.420;2023-04-01T22:09:27;10.35;;;5.07;;
72573;SDS011;60603;52.548;13.420;2023-04-01T22:12:17;10.35;;;4.78;;
72573;SDS011;60603;52.548;13.420;2023-04-01T22:17:36;10.48;;;5.35;;
72573;SDS011;60603;52.548;13.420;2023-04-01T22:20:27;7.80;;;4.20;;
72573;SDS011;60603;52.548;13.420;2023-04-01T22:23:12;9.35;;;4.05;;
72573;SDS011;60603;52.548;13.420;2023-04-01T22:28:23;7.60;;;3.45;;
72573;SDS011;60603;52.548;13.420;2023-04-01T22:30:58;7.30;;;3.42;;
72573;SDS011;60603;52.548;13.420;2023-04-01T22:34:31;8.25;;;4.13;;
72573;SDS011;60603;52.548;13.420;2023-04-01T22:53:36;6.72;;;3.25;;
72573;SDS011;60603;52.548;13.420;2023-04-01T22:56:24;6.60;;;3.30;;
72573;SDS011;60603;52.548;13.420;2023-04-01T22:59:17;7.25;;;4.15;;
72573;SDS011;60603;52.548;13.420;2023-04-01T23:02:06;6.70;;;4.22;;
72573;SDS011;60603;52.548;13.420;2023-04-01T23:04:38;7.35;;;4.78;;
72573;SDS011;60603;52.548;13.420;2023-04-01T23:07:14;8.20;;;4.28;;
72573;SDS011;60603;52.548;13.420;2023-04-01T23:09:49;8.00;;;4.55;;
72573;SDS011;60603;52.548;13.420;2023-04-01T23:12:15;9.90;;;4.40;;
72573;SDS011;60603;52.548;13.420;2023-04-01T23:14:49;7.55;;;3.38;;
72573;SDS011;60603;52.548;13.420;2023-04-01T23:28:50;6.82;;;3.17;;
72573;SDS011;60603;52.548;13.420;2023-04-01T23:33:53;4.55;;;2.40;;
72573;SDS011;60603;52.548;13.420;2023-04-01T23:36:20;6.68;;;3.45;;
72573;SDS011;60603;52.548;13.420;2023-04-01T23:38:46;7.90;;;3.65;;
72573;SDS011;60603;52.548;13.420;2023-04-01T23:41:20;5.75;;;3.45;;
72573;SDS011;60603;52.548;13.420;2023-04-01T23:43:52;7.85;;;4.00;;
72573;SDS011;60603;52.548;13.420;2023-04-01T23:46:21;9.73;;;4.28;;
72573;SDS011;60603;52.548;13.420;2023-04-01T23:48:48;7.10;;;3.63;;
72573;SDS011;60603;52.548;13.420;2023-04-01T23:54:03;9.20;;;4.03;;
72573;SDS011;60603;52.548;13.420;2023-04-01T23:56:48;9.00;;;4.30;;
72573;SDS011;60603;52.548;13.420;2023-04-01T23:59:28;6.50;;;3.33;;
